createdAt,value
2018-01-31T01:52:50.872Z,51.5
2018-01-31T02:00:58.624Z,45.0
2018-01-31T02:10:58.381Z,40.9
2018-01-31T02:20:58.196Z,45.5
2018-01-31T02:30:58.788Z,43.6
2018-01-31T02:40:58.518Z,41.0
2018-01-31T02:50:58.212Z,35.5
2018-01-31T03:00:58.923Z,43.1
2018-01-31T03:10:58.598Z,39.8
2018-01-31T03:20:58.347Z,41.5
2018-01-31T03:30:59.055Z,41.3
2018-01-31T03:40:58.784Z,42.8
2018-01-31T03:50:58.494Z,42.2
2018-01-31T04:00:58.186Z,37.4
2018-01-31T04:10:58.878Z,40.5
2018-01-31T04:20:58.698Z,44.9
2018-01-31T04:30:58.401Z,41.6
2018-01-31T04:40:59.172Z,46.1
2018-01-31T04:50:58.849Z,40.7
2018-01-31T05:00:58.526Z,46.1
2018-01-31T05:10:58.277Z,41.4
2018-01-31T05:20:59.131Z,40.7
2018-01-31T05:30:58.697Z,47.1
2018-01-31T05:40:58.396Z,42.0
2018-01-31T05:50:59.095Z,48.2
2018-01-31T06:00:58.856Z,44.4
2018-01-31T06:10:58.641Z,56.9
2018-01-31T06:20:58.482Z,52.8
2018-01-31T06:30:58.268Z,52.1
2018-01-31T06:40:58.992Z,44.9
2018-01-31T06:50:58.705Z,59.6
2018-01-31T07:00:58.455Z,38.7
2018-01-31T07:10:59.189Z,42.4
2018-01-31T07:20:59.044Z,44.2
2018-01-31T07:30:58.957Z,58.3
2018-01-31T07:40:58.697Z,63.0
2018-01-31T07:50:58.581Z,65.2
2018-01-31T08:00:58.289Z,71.5
2018-01-31T08:10:59.133Z,61.3
2018-01-31T08:20:59.009Z,63.9
2018-01-31T08:30:58.686Z,45.6
2018-01-31T08:40:58.458Z,61.9
2018-01-31T08:50:59.185Z,80.4
2018-01-31T09:00:58.920Z,35.1
2018-01-31T09:10:58.622Z,34.3
2018-01-31T09:20:58.461Z,38.7
2018-01-31T09:30:59.203Z,67.6
2018-01-31T09:40:58.903Z,30.3
2018-01-31T09:50:58.632Z,31.9
2018-01-31T10:00:58.392Z,23.0
2018-01-31T10:10:59.146Z,20.7
2018-01-31T10:20:59.014Z,19.8
2018-01-31T10:30:58.742Z,19.4
2018-01-31T10:40:58.451Z,11.6
2018-01-31T10:50:59.216Z,10.9
2018-01-31T11:00:58.980Z,8.3
2018-01-31T11:10:58.717Z,6.7
2018-01-31T11:20:58.558Z,11.8
2018-01-31T11:30:58.308Z,8.7
2018-01-31T11:40:59.132Z,9.0
2018-01-31T11:50:58.897Z,6.4
2018-01-31T12:00:58.622Z,4.2
2018-01-31T12:10:58.363Z,4.9
2018-01-31T12:20:59.266Z,7.7
2018-01-31T12:30:58.996Z,4.5
2018-01-31T12:40:58.770Z,6.9
2018-01-31T12:50:58.582Z,5.1
2018-01-31T13:00:58.323Z,4.8
2018-01-31T13:10:59.115Z,5.8
2018-01-31T13:20:58.968Z,5.5
2018-01-31T13:30:58.785Z,5.9
2018-01-31T13:40:58.555Z,5.6
2018-01-31T13:50:58.351Z,6.1
2018-01-31T14:00:59.152Z,6.4
2018-01-31T14:10:58.927Z,6.4
2018-01-31T14:20:58.838Z,5.8
2018-01-31T14:30:58.602Z,7.9
2018-01-31T14:40:58.369Z,5.4
2018-01-31T14:50:59.188Z,9.6
2018-01-31T15:00:59.123Z,8.1
2018-01-31T15:10:58.895Z,8.8
2018-01-31T15:20:58.830Z,9.4
2018-01-31T15:30:58.621Z,12.6
2018-01-31T15:40:58.402Z,13.8
2018-01-31T15:50:59.245Z,15.6
2018-01-31T16:00:59.015Z,16.0
2018-01-31T16:10:58.751Z,16.3
2018-01-31T16:20:58.681Z,19.3
2018-01-31T16:30:58.451Z,18.5
2018-01-31T16:40:59.264Z,20.6
2018-01-31T16:50:59.040Z,19.8
2018-01-31T17:00:58.806Z,18.4
2018-01-31T17:10:58.627Z,21.9
2018-01-31T17:20:58.552Z,24.7
2018-01-31T17:30:58.323Z,29.0
2018-01-31T17:40:59.046Z,27.6
2018-01-31T17:50:58.938Z,27.4
2018-01-31T18:00:58.730Z,27.7
2018-01-31T18:10:58.586Z,31.3
2018-01-31T18:20:58.372Z,31.2
2018-01-31T18:30:59.097Z,30.5
2018-01-31T18:40:58.895Z,26.9
2018-01-31T18:50:58.749Z,30.5
2018-01-31T19:00:58.510Z,30.6
2018-01-31T19:10:59.267Z,29.2
2018-01-31T19:20:59.150Z,32.0
2018-01-31T19:30:58.939Z,37.2
2018-01-31T19:40:58.686Z,70.8
2018-01-31T19:50:58.911Z,56.7
2018-01-31T20:00:59.243Z,64.1
2018-01-31T20:10:59.652Z,44.6
2018-01-31T20:20:58.948Z,44.3
2018-01-31T20:30:59.178Z,34.3
2018-01-31T20:40:59.584Z,30.8
2018-01-31T20:50:58.954Z,43.5
2018-01-31T21:00:59.386Z,34.5
2018-01-31T21:10:59.769Z,33.2
2018-01-31T21:20:59.209Z,31.2
2018-01-31T21:30:59.507Z,28.4
2018-01-31T21:40:59.270Z,29.6
2018-01-31T21:50:59.067Z,30.2
2018-01-31T22:00:58.785Z,33.1
2018-01-31T22:10:58.649Z,33.0
2018-01-31T22:20:58.547Z,40.7
2018-01-31T22:30:59.296Z,31.4
2018-01-31T22:40:59.040Z,27.0
2018-01-31T22:50:58.730Z,29.0
2018-01-31T23:00:58.513Z,53.3
2018-01-31T23:10:59.251Z,33.6
2018-01-31T23:20:59.127Z,32.6
2018-01-31T23:30:58.882Z,29.7
2018-01-31T23:40:58.613Z,27.2
2018-01-31T23:50:58.392Z,24.4
